Time;durP1;ratioP1;P1;durP2;ratioP2;P2;SDS_P1;SDS_P2;PMS_P1;PMS_P2;Temp;Humidity;BMP_temperature;BMP_pressure;BME280_temperature;BME280_humidity;BME280_pressure;Samples;Min_cycle;Max_cycle;Signal;HPM_P1;HPM_P2
2022/09/01 00:01:09;;;;;;;0.00;0.00;;;13.80;99.90;;;;;;5114924;28;20399;-82
2022/09/01 00:03:35;;;;;;;0.00;0.00;;;13.80;99.90;;;;;;5098150;28;20042;-83
2022/09/01 00:06:02;;;;;;;0.00;0.00;;;13.80;99.90;;;;;;5097745;28;20089;-83
2022/09/01 00:08:28;;;;;;;0.00;0.00;;;13.70;99.90;;;;;;5114919;28;20056;-83
2022/09/01 00:10:54;;;;;;;0.00;0.00;;;13.70;99.90;;;;;;5097757;28;20497;-83
2022/09/01 00:13:20;;;;;;;0.00;0.00;;;13.60;99.90;;;;;;5114705;28;20104;-83
2022/09/01 00:15:46;;;;;;;0.00;0.00;;;13.60;99.90;;;;;;5115020;28;20051;-83
2022/09/01 00:18:12;;;;;;;0.00;0.00;;;13.60;99.90;;;;;;5114536;28;20039;-83
2022/09/01 00:20:38;;;;;;;0.00;0.00;;;13.60;99.90;;;;;;5097804;28;20390;-83
2022/09/01 00:23:04;;;;;;;0.00;0.00;;;13.50;99.90;;;;;;5114645;28;20047;-83
2022/09/01 00:25:29;;;;;;;0.00;0.00;;;13.50;99.90;;;;;;5114455;28;20402;-83
2022/09/01 00:27:59;;;;;;;0.00;0.00;;;13.50;99.90;;;;;;5114347;28;20042;-83
2022/09/01 00:30:25;;;;;;;0.00;0.00;;;13.40;99.90;;;;;;5096836;28;20059;-83
2022/09/01 00:32:50;;;;;;;4.30;0.10;;;13.50;99.90;;;;;;5114352;28;20044;-83
2022/09/01 00:35:18;;;;;;;0.00;0.00;;;13.50;99.90;;;;;;5097549;28;20131;-83
2022/09/01 00:37:44;;;;;;;0.00;0.00;;;13.50;99.90;;;;;;5097672;28;20252;-83
2022/09/01 00:40:12;;;;;;;0.00;0.00;;;13.50;99.90;;;;;;5097473;28;20043;-82
2022/09/01 00:42:39;;;;;;;0.00;0.00;;;13.40;99.90;;;;;;5096980;28;20059;-82
2022/09/01 00:45:07;;;;;;;0.00;0.00;;;13.40;99.90;;;;;;5114347;28;20453;-83
2022/09/01 00:47:34;;;;;;;0.00;0.00;;;13.40;99.90;;;;;;5097205;28;20093;-82
2022/09/01 00:50:03;;;;;;;0.00;0.00;;;13.30;99.90;;;;;;5097448;28;20051;-83
2022/09/01 00:52:33;;;;;;;0.00;0.00;;;13.30;99.90;;;;;;5096963;28;20485;-83
2022/09/01 00:55:06;;;;;;;0.00;0.00;;;13.30;99.90;;;;;;5097212;28;20053;-83
2022/09/01 00:57:32;;;;;;;0.00;0.00;;;13.20;99.90;;;;;;5114003;28;20122;-83
2022/09/01 01:00:10;;;;;;;0.00;0.00;;;13.20;99.90;;;;;;5113724;28;20090;-83
2022/09/01 01:02:37;;;;;;;0.00;0.00;;;13.20;99.90;;;;;;5097578;28;20040;-83
2022/09/01 01:05:05;;;;;;;0.00;0.00;;;13.10;99.90;;;;;;5113948;28;20395;-83
2022/09/01 01:07:35;;;;;;;0.00;0.00;;;13.10;99.90;;;;;;5113897;28;20039;-83
2022/09/01 01:10:02;;;;;;;0.00;0.00;;;13.00;99.90;;;;;;5114043;28;20054;-83
2022/09/01 01:12:29;;;;;;;0.00;0.00;;;13.00;99.90;;;;;;5113308;28;20040;-83
2022/09/01 01:14:55;;;;;;;0.00;0.00;;;13.00;99.90;;;;;;5114049;28;20127;-83
2022/09/01 01:17:22;;;;;;;0.10;0.00;;;12.90;99.90;;;;;;5113789;28;20092;-83
2022/09/01 01:23:09;;;;;;;0.00;0.00;;;12.90;99.90;;;;;;5113318;28;20054;-83
2022/09/01 01:25:55;;;;;;;0.03;0.03;;;12.90;99.90;;;;;;5113680;28;20120;-83
2022/09/01 01:28:25;;;;;;;0.00;0.00;;;12.90;99.90;;;;;;5096951;28;20043;-83
2022/09/01 01:31:04;;;;;;;0.00;0.00;;;12.90;99.90;;;;;;5096635;28;20096;-83
2022/09/01 01:33:40;;;;;;;0.00;0.00;;;12.80;99.90;;;;;;5113985;28;20138;-83
2022/09/01 01:36:12;;;;;;;0.00;0.00;;;12.80;99.90;;;;;;5113638;28;20100;-83
2022/09/01 01:38:40;;;;;;;0.00;0.00;;;12.80;99.90;;;;;;5113594;28;20360;-83
2022/09/01 01:41:06;;;;;;;0.00;0.00;;;12.80;99.90;;;;;;5113984;28;20063;-83
2022/09/01 01:43:32;;;;;;;0.00;0.00;;;12.70;99.90;;;;;;5100252;28;20517;-83
2022/09/01 01:46:01;;;;;;;0.00;0.00;;;12.70;99.90;;;;;;5100136;28;20047;-83
2022/09/01 01:48:28;;;;;;;0.57;0.17;;;12.70;99.90;;;;;;5117309;28;20059;-83
2022/09/01 01:50:56;;;;;;;0.00;0.00;;;12.70;99.90;;;;;;5117466;28;20107;-83
2022/09/01 01:53:22;;;;;;;0.00;0.00;;;12.60;99.90;;;;;;5116806;28;20504;-83
2022/09/01 01:55:48;;;;;;;0.00;0.00;;;12.60;99.90;;;;;;5099090;28;20125;-83
2022/09/01 01:58:18;;;;;;;0.00;0.00;;;12.60;99.90;;;;;;5115227;28;20543;-83
2022/09/01 02:00:46;;;;;;;0.00;0.00;;;12.60;99.90;;;;;;5099217;28;20139;-83
2022/09/01 02:03:16;;;;;;;0.00;0.00;;;12.60;99.90;;;;;;5116945;28;20051;-83
2022/09/01 02:05:42;;;;;;;0.00;0.00;;;12.60;99.90;;;;;;5100149;28;20043;-82
2022/09/01 02:08:09;;;;;;;0.00;0.00;;;12.60;99.90;;;;;;5100455;28;20052;-84
2022/09/01 02:10:44;;;;;;;0.00;0.00;;;12.50;99.90;;;;;;5100160;28;20039;-83
2022/09/01 02:13:15;;;;;;;;;;;12.50;99.90;;;;;;5100216;28;20040;-83
2022/09/01 02:15:53;;;;;;;0.00;0.00;;;12.60;99.90;;;;;;5100514;28;19920;-83
2022/09/01 02:18:26;;;;;;;0.00;0.00;;;12.50;99.90;;;;;;5117634;28;20130;-83
2022/09/01 02:20:54;;;;;;;0.00;0.00;;;12.50;99.90;;;;;;5117106;28;20372;-83
2022/09/01 02:23:23;;;;;;;0.00;0.00;;;12.60;99.90;;;;;;5099622;28;20043;-83
2022/09/01 02:25:52;;;;;;;0.00;0.00;;;12.50;99.90;;;;;;5100085;28;20048;-83
2022/09/01 02:28:20;;;;;;;0.00;0.00;;;12.40;99.90;;;;;;5116740;28;20047;-83
2022/09/01 02:30:50;;;;;;;0.00;0.00;;;12.40;99.90;;;;;;5099870;28;20055;-83
2022/09/01 02:33:20;;;;;;;0.00;0.00;;;12.40;99.90;;;;;;5099493;28;20127;-83
2022/09/01 02:35:52;;;;;;;0.00;0.00;;;12.40;99.90;;;;;;5116711;28;20546;-83
2022/09/01 02:38:19;;;;;;;0.00;0.00;;;12.30;99.90;;;;;;5117212;28;20055;-83
2022/09/01 02:40:46;;;;;;;0.00;0.00;;;12.30;99.90;;;;;;5099711;28;20044;-84
2022/09/01 02:43:19;;;;;;;0.00;0.00;;;12.30;99.90;;;;;;5099503;28;20043;-84
2022/09/01 02:45:54;;;;;;;0.00;0.00;;;12.30;99.90;;;;;;5116491;28;20062;-83
2022/09/01 02:48:24;;;;;;;0.00;0.00;;;12.30;99.90;;;;;;5099475;28;20090;-83
2022/09/01 02:50:50;;;;;;;0.00;0.00;;;12.20;99.90;;;;;;5099450;28;20135;-84
2022/09/01 02:53:16;;;;;;;0.00;0.00;;;12.20;99.90;;;;;;5098212;28;20127;-83
2022/09/01 02:55:42;;;;;;;0.00;0.00;;;12.20;99.90;;;;;;5116305;28;20040;-84
2022/09/01 02:58:15;;;;;;;0.00;0.00;;;12.20;99.90;;;;;;5116141;28;20045;-84
2022/09/01 03:00:45;;;;;;;0.00;0.00;;;12.20;99.90;;;;;;5115849;28;20056;-83
2022/09/01 03:03:11;;;;;;;0.00;0.00;;;12.20;99.90;;;;;;5116262;28;20055;-83
2022/09/01 03:05:38;;;;;;;0.00;0.00;;;12.10;99.90;;;;;;5116177;28;20039;-83
2022/09/01 03:08:09;;;;;;;0.00;0.00;;;12.00;99.90;;;;;;5116505;28;20437;-83
2022/09/01 03:10:40;;;;;;;0.00;0.00;;;12.10;99.90;;;;;;5116113;28;20054;-84
2022/09/01 03:13:24;;;;;;;0.00;0.00;;;12.10;99.90;;;;;;5098558;28;20436;-83
2022/09/01 03:15:50;;;;;;;0.00;0.00;;;12.10;99.90;;;;;;5116467;28;20051;-83
2022/09/01 03:18:17;;;;;;;0.00;0.00;;;12.10;99.90;;;;;;5098871;28;20053;-84
2022/09/01 03:20:45;;;;;;;0.00;0.00;;;12.00;99.90;;;;;;5098779;28;20043;-83
2022/09/01 03:23:14;;;;;;;0.00;0.00;;;12.00;99.90;;;;;;5098748;28;20044;-84
2022/09/01 03:25:42;;;;;;;0.22;0.13;;;12.00;99.90;;;;;;5098668;28;20464;-83
2022/09/01 03:28:08;;;;;;;0.00;0.00;;;12.00;99.90;;;;;;5098589;28;20138;-83
2022/09/01 03:30:39;;;;;;;0.00;0.00;;;12.00;99.90;;;;;;5098434;28;20047;-84
2022/09/01 03:33:06;;;;;;;0.00;0.00;;;11.90;99.90;;;;;;5098385;28;20050;-84
2022/09/01 03:35:32;;;;;;;0.00;0.00;;;11.90;99.90;;;;;;5115641;28;20048;-83
2022/09/01 03:38:00;;;;;;;0.00;0.00;;;11.90;99.90;;;;;;5115525;28;20047;-83
2022/09/01 03:40:31;;;;;;;0.00;0.00;;;11.90;99.90;;;;;;5098088;28;20452;-83
2022/09/01 03:43:01;;;;;;;0.00;0.00;;;11.90;99.90;;;;;;5098295;28;20116;-83
2022/09/01 03:45:28;;;;;;;0.00;0.00;;;11.90;99.90;;;;;;5098572;28;20047;-84
2022/09/01 03:47:55;;;;;;;0.00;0.00;;;11.90;99.90;;;;;;5098185;28;20135;-84
2022/09/01 03:50:23;;;;;;;0.00;0.00;;;11.90;99.90;;;;;;5115126;28;20031;-84
2022/09/01 03:52:54;;;;;;;0.00;0.00;;;11.90;99.90;;;;;;5097792;28;20039;-83
2022/09/01 03:55:25;;;;;;;0.00;0.00;;;11.90;99.90;;;;;;5115436;28;20039;-83
2022/09/01 03:57:56;;;;;;;0.10;0.10;;;12.00;99.90;;;;;;5098597;28;20066;-83
2022/09/01 04:00:28;;;;;;;0.05;0.00;;;11.90;99.90;;;;;;5114790;28;20051;-83
2022/09/01 04:02:57;;;;;;;0.00;0.00;;;12.00;99.90;;;;;;5115204;28;20100;-83
2022/09/01 04:05:27;;;;;;;0.00;0.00;;;11.90;99.90;;;;;;5114557;28;20051;-83
2022/09/01 04:07:55;;;;;;;0.00;0.00;;;11.90;99.90;;;;;;5115235;28;20100;-84
2022/09/01 04:10:21;;;;;;;0.00;0.00;;;11.90;99.90;;;;;;5097746;28;20055;-83
2022/09/01 04:12:48;;;;;;;0.00;0.00;;;11.90;99.90;;;;;;5114369;28;20039;-83
2022/09/01 04:15:15;;;;;;;0.00;0.00;;;11.90;99.90;;;;;;5115105;28;20050;-83
2022/09/01 04:18:08;;;;;;;0.00;0.00;;;12.00;99.90;;;;;;5097599;28;20045;-83
2022/09/01 04:20:47;;;;;;;0.00;0.00;;;11.90;99.90;;;;;;5114437;28;20040;-83
2022/09/01 04:23:22;;;;;;;0.00;0.00;;;12.00;99.90;;;;;;5114626;28;20394;-83
2022/09/01 04:25:49;;;;;;;0.00;0.00;;;11.90;99.90;;;;;;5096723;28;20070;-83
2022/09/01 04:28:21;;;;;;;0.00;0.00;;;12.00;99.90;;;;;;5114384;28;20368;-84
2022/09/01 04:30:56;;;;;;;0.00;0.00;;;12.00;99.90;;;;;;5094582;28;20044;-83
2022/09/01 04:33:24;;;;;;;0.00;0.00;;;11.90;99.90;;;;;;5094326;28;20082;-84
2022/09/01 04:35:50;;;;;;;0.00;0.00;;;11.90;99.90;;;;;;5113628;28;20426;-84
2022/09/01 04:38:16;;;;;;;0.00;0.00;;;11.90;99.90;;;;;;5096467;28;20105;-85
2022/09/01 04:40:42;;;;;;;0.00;0.00;;;11.90;99.90;;;;;;5113703;28;20059;-84
2022/09/01 04:43:08;;;;;;;0.00;0.00;;;11.90;99.90;;;;;;5096579;28;20043;-84
2022/09/01 04:45:35;;;;;;;0.00;0.00;;;11.90;99.90;;;;;;5113940;28;20098;-84
2022/09/01 04:48:04;;;;;;;0.00;0.00;;;11.90;99.90;;;;;;5113979;28;20547;-84
2022/09/01 04:50:31;;;;;;;0.00;0.00;;;11.80;99.90;;;;;;5114154;28;20043;-84
2022/09/01 04:53:00;;;;;;;0.00;0.00;;;11.80;99.90;;;;;;5096168;28;20090;-84
2022/09/01 04:55:28;;;;;;;0.00;0.00;;;11.80;99.90;;;;;;5113910;28;20052;-85
2022/09/01 04:57:58;;;;;;;0.00;0.00;;;11.80;99.90;;;;;;5097574;28;20066;-84
2022/09/01 05:00:26;;;;;;;0.00;0.00;;;11.80;99.90;;;;;;5096751;28;20407;-84
2022/09/01 05:03:03;;;;;;;0.00;0.00;;;11.80;99.90;;;;;;5096951;28;20403;-84
2022/09/01 05:05:52;;;;;;;0.00;0.00;;;11.80;99.90;;;;;;5114402;28;20071;-84
2022/09/01 05:08:21;;;;;;;0.00;0.00;;;11.70;99.90;;;;;;5097653;28;20417;-84
2022/09/01 05:10:52;;;;;;;0.00;0.00;;;11.70;99.90;;;;;;5114084;28;20449;-84
2022/09/01 05:13:21;;;;;;;0.00;0.00;;;11.70;99.90;;;;;;5096769;28;20046;-84
2022/09/01 05:15:47;;;;;;;0.08;0.08;;;11.70;99.90;;;;;;5112898;28;20039;-84
2022/09/01 05:18:26;;;;;;;0.00;0.00;;;11.70;99.90;;;;;;5113853;28;20044;-84
2022/09/01 05:20:53;;;;;;;0.00;0.00;;;11.80;99.90;;;;;;5096916;28;20109;-84
2022/09/01 05:23:20;;;;;;;0.00;0.00;;;11.80;99.90;;;;;;5096857;28;20044;-84
2022/09/01 05:25:50;;;;;;;0.00;0.00;;;11.90;99.90;;;;;;5096722;28;20051;-84
2022/09/01 05:28:18;;;;;;;0.00;0.00;;;11.90;99.90;;;;;;5113093;28;20059;-83
2022/09/01 05:30:45;;;;;;;0.00;0.00;;;11.90;99.90;;;;;;5113456;28;20050;-84
2022/09/01 05:33:15;;;;;;;0.00;0.00;;;11.90;99.90;;;;;;5113327;28;20062;-83
2022/09/01 05:35:58;;;;;;;0.00;0.00;;;12.00;99.90;;;;;;5096116;28;20122;-84
2022/09/01 05:38:24;;;;;;;0.00;0.00;;;12.00;99.90;;;;;;5096286;28;20046;-84
2022/09/01 05:41:03;;;;;;;0.00;0.00;;;12.10;99.90;;;;;;5113401;28;20126;-83
2022/09/01 05:43:30;;;;;;;0.00;0.00;;;12.10;99.90;;;;;;5098278;28;20036;-83
2022/09/01 05:45:57;;;;;;;0.00;0.00;;;12.10;99.90;;;;;;5097146;28;20047;-83
2022/09/01 05:48:23;;;;;;;0.00;0.00;;;12.20;99.90;;;;;;5096710;28;20059;-84
2022/09/01 05:50:55;;;;;;;0.00;0.00;;;12.20;99.90;;;;;;5113630;28;20047;-83
2022/09/01 05:53:24;;;;;;;0.00;0.00;;;12.30;99.90;;;;;;5096293;28;20036;-84
2022/09/01 05:55:55;;;;;;;0.00;0.00;;;12.30;99.90;;;;;;5113467;28;20050;-83
2022/09/01 05:58:26;;;;;;;0.00;0.00;;;12.30;99.90;;;;;;5113353;28;20048;-83
2022/09/01 06:00:54;;;;;;;0.00;0.00;;;12.40;99.90;;;;;;5096385;28;20396;-83
2022/09/01 06:03:21;;;;;;;0.00;0.00;;;12.50;99.90;;;;;;5096268;28;20052;-83
2022/09/01 06:05:51;;;;;;;0.00;0.00;;;12.50;99.90;;;;;;5113252;28;20094;-84
2022/09/01 06:08:20;;;;;;;0.00;0.00;;;12.60;99.90;;;;;;5113263;28;20048;-83
2022/09/01 06:10:48;;;;;;;0.00;0.00;;;12.60;99.90;;;;;;5095662;28;20485;-83
2022/09/01 06:13:16;;;;;;;0.00;0.00;;;12.70;99.90;;;;;;5095733;28;20047;-82
2022/09/01 06:15:43;;;;;;;0.00;0.00;;;12.70;99.90;;;;;;5095753;28;20078;-82
2022/09/01 06:18:13;;;;;;;0.00;0.00;;;12.80;99.90;;;;;;5096168;28;20053;-82
2022/09/01 06:20:44;;;;;;;0.00;0.00;;;12.80;99.90;;;;;;5113002;28;20043;-82
2022/09/01 06:23:14;;;;;;;0.00;0.00;;;12.80;99.90;;;;;;5112938;28;20134;-82
2022/09/01 06:25:45;;;;;;;0.00;0.00;;;12.90;99.90;;;;;;5096409;28;20055;-82
2022/09/01 06:28:15;;;;;;;0.00;0.00;;;13.00;99.90;;;;;;5097743;28;20060;-82
2022/09/01 06:30:44;;;;;;;0.00;0.00;;;13.10;99.90;;;;;;5100422;28;20048;-82
2022/09/01 06:33:12;;;;;;;0.00;0.00;;;13.00;99.90;;;;;;5116486;28;20044;-82
2022/09/01 06:35:40;;;;;;;0.00;0.00;;;13.20;99.90;;;;;;5098971;28;20079;-82
2022/09/01 06:38:07;;;;;;;0.00;0.00;;;13.30;99.90;;;;;;5116336;28;20052;-82
2022/09/01 06:40:34;;;;;;;0.00;0.00;;;13.30;99.90;;;;;;5099615;28;20138;-82
2022/09/01 06:43:01;;;;;;;0.00;0.00;;;13.40;99.90;;;;;;5116860;28;20391;-82
2022/09/01 06:45:26;;;;;;;0.00;0.00;;;13.50;99.90;;;;;;5099573;28;20411;-82
2022/09/01 06:47:54;;;;;;;0.00;0.00;;;13.60;99.90;;;;;;5116076;28;20039;-82
2022/09/01 06:50:22;;;;;;;0.00;0.00;;;13.70;99.90;;;;;;5099328;28;20046;-82
2022/09/01 06:53:02;;;;;;;0.00;0.00;;;13.80;99.90;;;;;;5099160;28;20048;-82
2022/09/01 06:55:30;;;;;;;1.00;0.43;;;14.10;99.90;;;;;;5098648;28;20047;-83
2022/09/01 06:57:56;;;;;;;0.00;0.00;;;14.40;99.90;;;;;;5115643;28;20059;-82
2022/09/01 07:00:22;;;;;;;0.00;0.00;;;15.20;99.90;;;;;;5098583;28;20129;-82
2022/09/01 07:02:54;;;;;;;0.00;0.00;;;16.30;99.90;;;;;;5116686;28;20491;-83
2022/09/01 07:05:20;;;;;;;0.00;0.00;;;17.30;99.90;;;;;;5098893;28;20043;-82
2022/09/01 07:07:53;;;;;;;0.00;0.00;;;17.70;99.90;;;;;;5099914;28;20039;-82
2022/09/01 07:10:21;;;;;;;0.00;0.00;;;17.80;99.90;;;;;;5099024;28;20139;-81
2022/09/01 07:13:00;;;;;;;0.00;0.00;;;17.70;99.90;;;;;;5098080;28;20089;-81
2022/09/01 07:15:29;;;;;;;0.00;0.00;;;17.80;99.90;;;;;;5098092;28;20078;-81
2022/09/01 07:17:57;;;;;;;0.10;0.00;;;17.90;99.90;;;;;;5115832;28;20411;-82
2022/09/01 07:20:27;;;;;;;0.00;0.00;;;17.80;99.90;;;;;;5097824;28;20051;-81
2022/09/01 07:22:55;;;;;;;0.00;0.00;;;17.90;99.90;;;;;;5098848;28;20039;-81
2022/09/01 07:25:21;;;;;;;0.00;0.00;;;18.10;99.90;;;;;;5115465;28;20464;-81
2022/09/01 07:27:50;;;;;;;0.73;0.22;;;18.20;99.90;;;;;;5115510;28;20126;-79
2022/09/01 07:30:20;;;;;;;0.00;0.00;;;18.20;99.90;;;;;;5115324;28;20051;-80
2022/09/01 07:32:47;;;;;;;0.00;0.00;;;18.20;99.90;;;;;;5098372;28;20055;-80
2022/09/01 07:35:17;;;;;;;0.70;0.20;;;18.30;99.90;;;;;;5098194;28;20055;-79
2022/09/01 07:37:43;;;;;;;0.05;0.05;;;18.60;99.90;;;;;;5115307;28;20052;-81
2022/09/01 07:40:18;;;;;;;0.00;0.00;;;18.80;99.90;;;;;;5097280;28;20044;-79
2022/09/01 07:42:46;;;;;;;0.25;0.20;;;18.80;99.90;;;;;;5098493;28;20511;-79
2022/09/01 07:45:14;;;;;;;0.00;0.00;;;18.70;99.90;;;;;;5098396;28;20047;-79
2022/09/01 07:47:39;;;;;;;0.00;0.00;;;18.50;99.90;;;;;;5115123;28;20040;-79
2022/09/01 07:50:07;;;;;;;0.00;0.00;;;18.30;99.90;;;;;;5097944;28;20066;-80
2022/09/01 07:52:35;;;;;;;0.00;0.00;;;18.30;99.90;;;;;;5114828;28;20613;-79
2022/09/01 07:55:02;;;;;;;0.00;0.00;;;18.20;99.90;;;;;;5097554;28;20518;-79
2022/09/01 07:57:28;;;;;;;0.00;0.00;;;18.10;99.90;;;;;;5097840;28;20126;-80
2022/09/01 07:59:54;;;;;;;0.00;0.00;;;18.10;99.90;;;;;;5114683;28;20086;-80
2022/09/01 08:02:20;;;;;;;0.00;0.00;;;18.10;99.90;;;;;;5097701;28;20047;-80
2022/09/01 08:04:47;;;;;;;0.00;0.00;;;18.00;99.90;;;;;;5114440;28;20090;-80
2022/09/01 08:07:13;;;;;;;0.00;0.00;;;18.00;99.90;;;;;;5114474;28;20050;-80
2022/09/01 08:09:39;;;;;;;0.00;0.00;;;18.00;99.90;;;;;;5114948;28;20043;-80
2022/09/01 08:12:06;;;;;;;0.00;0.00;;;18.00;99.90;;;;;;5114809;28;20164;-79
2022/09/01 08:14:32;;;;;;;0.05;0.00;;;17.90;99.90;;;;;;5097631;28;20044;-80
2022/09/01 08:16:57;;;;;;;0.00;0.00;;;18.00;99.90;;;;;;5114630;28;20092;-79
2022/09/01 08:19:23;;;;;;;0.00;0.00;;;18.00;99.90;;;;;;5114063;28;20093;-79
2022/09/01 08:21:49;;;;;;;0.52;0.10;;;18.00;99.90;;;;;;5097529;28;20055;-79
2022/09/01 08:24:14;;;;;;;0.00;0.00;;;18.10;99.90;;;;;;5115003;28;20042;-79
2022/09/01 08:26:40;;;;;;;0.00;0.00;;;18.10;99.90;;;;;;5114335;28;20050;-79
2022/09/01 08:29:06;;;;;;;0.00;0.00;;;18.20;99.90;;;;;;5097130;28;20044;-79
2022/09/01 08:31:32;;;;;;;0.00;0.00;;;18.30;99.90;;;;;;5114130;28;20112;-79
2022/09/01 08:33:59;;;;;;;0.00;0.00;;;18.30;99.90;;;;;;5114036;28;20097;-79
2022/09/01 08:36:24;;;;;;;0.10;0.10;;;18.40;99.90;;;;;;5096349;28;20449;-79
2022/09/01 08:38:51;;;;;;;0.00;0.00;;;18.50;99.90;;;;;;5097028;28;20048;-79
2022/09/01 08:41:35;;;;;;;0.22;0.22;;;18.60;99.90;;;;;;5097131;28;20051;-79
2022/09/01 08:44:31;;;;;;;0.00;0.00;;;18.70;99.90;;;;;;5097211;28;20044;-79
2022/09/01 08:47:04;;;;;;;0.00;0.00;;;18.80;99.90;;;;;;5113449;28;20054;-80
2022/09/01 08:49:32;;;;;;;0.00;0.00;;;19.00;99.90;;;;;;5096670;28;20063;-80
2022/09/01 08:52:06;;;;;;;0.00;0.00;;;19.00;99.90;;;;;;5113294;28;20483;-80
2022/09/01 08:54:56;;;;;;;0.00;0.00;;;19.20;99.90;;;;;;5096544;28;20051;-79
2022/09/01 08:57:35;;;;;;;0.10;0.10;;;19.30;99.90;;;;;;5096865;28;20044;-80
2022/09/01 09:00:03;;;;;;;0.00;0.00;;;19.50;99.90;;;;;;5113253;28;20051;-80
2022/09/01 09:03:19;;;;;;;0.00;0.00;;;19.70;99.90;;;;;;5096339;28;20051;-80
2022/09/01 09:06:06;;;;;;;0.00;0.00;;;19.90;99.90;;;;;;4999828;28;20468;-80
2022/09/01 09:08:47;;;;;;;0.00;0.00;;;20.10;99.90;;;;;;4957323;28;20146;-79
2022/09/01 09:11:21;;;;;;;0.00;0.00;;;20.20;99.90;;;;;;4956363;28;20050;-79
2022/09/01 09:13:56;;;;;;;0.00;0.00;;;20.40;99.90;;;;;;4946945;28;20134;-80
2022/09/01 09:16:27;;;;;;;0.00;0.00;;;20.60;99.90;;;;;;4954812;28;20172;-79
2022/09/01 09:18:59;;;;;;;0.00;0.00;;;20.70;99.80;;;;;;4941112;28;20055;-79
2022/09/01 09:21:25;;;;;;;0.00;0.00;;;20.80;98.90;;;;;;4940907;28;20047;-79
2022/09/01 09:24:01;;;;;;;2.17;0.65;;;21.00;97.90;;;;;;4957314;28;20203;-79
2022/09/01 09:26:30;;;;;;;0.00;0.00;;;21.20;98.60;;;;;;4941007;28;20055;-79
2022/09/01 09:28:55;;;;;;;0.10;0.10;;;21.30;96.00;;;;;;4957412;28;20435;-79
2022/09/01 09:31:42;;;;;;;0.00;0.00;;;21.30;96.20;;;;;;4956750;28;20055;-79
2022/09/01 09:34:40;;;;;;;0.00;0.00;;;21.40;96.60;;;;;;4940979;28;20043;-79
2022/09/01 09:37:15;;;;;;;0.00;0.00;;;21.50;96.00;;;;;;5031175;28;20495;-79
2022/09/01 09:39:41;;;;;;;0.00;0.00;;;21.60;94.60;;;;;;5048863;28;20048;-78
2022/09/01 09:42:11;;;;;;;0.00;0.00;;;21.70;93.50;;;;;;5023370;28;20132;-80
2022/09/01 09:44:47;;;;;;;0.00;0.00;;;21.80;94.20;;;;;;5038978;28;20392;-80
2022/09/01 09:47:32;;;;;;;0.00;0.00;;;21.90;93.90;;;;;;5076000;28;20062;-80
2022/09/01 09:50:21;;;;;;;0.00;0.00;;;22.10;95.00;;;;;;5075884;28;20043;-79
2022/09/01 09:52:48;;;;;;;0.00;0.00;;;22.20;93.90;;;;;;5092597;28;20048;-79
2022/09/01 09:55:24;;;;;;;0.00;0.00;;;22.30;91.90;;;;;;5092757;28;20139;-80
2022/09/01 09:57:53;;;;;;;0.08;0.08;;;22.50;93.20;;;;;;5092787;28;20058;-80
2022/09/01 10:00:33;;;;;;;0.00;0.00;;;22.50;92.00;;;;;;5104772;28;20059;-79
2022/09/01 10:03:03;;;;;;;0.00;0.00;;;22.60;91.90;;;;;;5115215;28;20048;-79
2022/09/01 10:05:47;;;;;;;0.03;0.03;;;22.70;92.50;;;;;;5099836;28;20079;-79
2022/09/01 10:08:43;;;;;;;0.00;0.00;;;22.90;92.00;;;;;;5116512;28;20054;-79
2022/09/01 10:11:23;;;;;;;0.00;0.00;;;22.90;89.20;;;;;;5018586;28;20063;-79
2022/09/01 10:13:48;;;;;;;0.00;0.00;;;23.10;90.30;;;;;;5018507;28;20095;-79
2022/09/01 10:16:23;;;;;;;0.00;0.00;;;23.10;89.80;;;;;;5018457;28;20093;-79
2022/09/01 10:18:51;;;;;;;0.00;0.00;;;23.10;87.40;;;;;;5002273;28;20048;-79
2022/09/01 10:21:38;;;;;;;0.00;0.00;;;23.10;88.90;;;;;;5018396;28;20057;-79
2022/09/01 10:24:25;;;;;;;0.00;0.00;;;23.20;87.60;;;;;;5018015;28;20611;-79
2022/09/01 10:26:55;;;;;;;3.88;0.30;;;23.40;90.20;;;;;;5018169;28;20050;-80
2022/09/01 10:30:00;;;;;;;0.00;0.00;;;23.70;90.20;;;;;;5018385;28;20061;-79
2022/09/01 10:32:32;;;;;;;0.00;0.00;;;23.80;83.30;;;;;;4959742;28;20051;-79
2022/09/01 10:35:00;;;;;;;0.10;0.10;;;23.90;81.80;;;;;;4959345;28;20065;-79
2022/09/01 10:37:26;;;;;;;0.00;0.00;;;24.10;83.50;;;;;;4959531;28;20055;-79
2022/09/01 10:40:22;;;;;;;0.00;0.00;;;24.00;82.70;;;;;;4953305;28;20522;-80
2022/09/01 10:42:53;;;;;;;0.00;0.00;;;24.20;82.20;;;;;;4957820;28;20114;-81
2022/09/01 10:45:33;;;;;;;0.00;0.00;;;24.50;82.70;;;;;;4937906;29;20408;-80
2022/09/01 10:48:25;;;;;;;0.00;0.00;;;24.70;80.10;;;;;;4983870;28;20061;-80
2022/09/01 10:50:54;;;;;;;0.10;0.10;;;24.80;79.80;;;;;;5020561;28;20053;-80
2022/09/01 10:53:32;;;;;;;0.00;0.00;;;24.70;77.40;;;;;;5037469;28;20045;-80
2022/09/01 10:56:14;;;;;;;0.00;0.00;;;24.90;80.50;;;;;;5037679;28;20061;-80
2022/09/01 10:58:57;;;;;;;0.00;0.00;;;25.00;74.30;;;;;;5037403;28;20130;-79
2022/09/01 11:01:42;;;;;;;0.03;0.00;;;25.00;75.20;;;;;;5037645;28;20063;-80
2022/09/01 11:04:11;;;;;;;0.30;0.10;;;25.10;74.10;;;;;;5037308;28;20382;-79
2022/09/01 11:06:40;;;;;;;0.10;0.08;;;25.10;72.60;;;;;;5037554;28;20045;-79
2022/09/01 11:09:18;;;;;;;0.80;0.17;;;25.10;73.20;;;;;;5098792;28;20130;-80
2022/09/01 11:12:06;;;;;;;0.10;0.10;;;25.20;74.00;;;;;;5115784;28;20126;-80
2022/09/01 11:14:34;;;;;;;0.00;0.00;;;25.00;74.80;;;;;;5114282;28;20513;-80
2022/09/01 11:17:12;;;;;;;0.00;0.00;;;25.00;75.10;;;;;;5098385;28;20059;-80
2022/09/01 11:19:46;;;;;;;0.00;0.00;;;25.20;75.20;;;;;;5098240;28;20495;-80
2022/09/01 11:22:31;;;;;;;0.00;0.00;;;25.40;72.30;;;;;;5115530;28;20043;-80
2022/09/01 11:25:34;;;;;;;0.00;0.00;;;25.30;72.70;;;;;;5098052;28;20067;-79
2022/09/01 11:28:05;;;;;;;0.00;0.00;;;25.20;72.00;;;;;;5115434;28;20119;-79
2022/09/01 11:30:30;;;;;;;0.00;0.00;;;25.40;70.80;;;;;;5098347;28;20044;-79
2022/09/01 11:33:22;;;;;;;0.00;0.00;;;25.60;71.30;;;;;;5115100;28;20394;-80
2022/09/01 11:36:01;;;;;;;0.00;0.00;;;25.90;68.80;;;;;;5104872;28;20116;-79
2022/09/01 11:38:30;;;;;;;0.00;0.00;;;26.00;70.00;;;;;;5115407;28;20046;-79
2022/09/01 11:40:57;;;;;;;0.00;0.00;;;26.20;69.20;;;;;;5115426;28;20053;-79
2022/09/01 11:43:24;;;;;;;0.00;0.00;;;26.10;66.10;;;;;;5098075;28;20130;-80
2022/09/01 11:46:16;;;;;;;0.00;0.00;;;26.10;67.70;;;;;;5110597;28;20047;-80
2022/09/01 11:48:46;;;;;;;0.00;0.00;;;26.20;68.10;;;;;;5085691;28;20052;-80
2022/09/01 11:51:14;;;;;;;0.00;0.00;;;26.20;65.60;;;;;;5089274;28;20063;-80
2022/09/01 11:53:41;;;;;;;0.00;0.00;;;26.00;66.50;;;;;;5093241;28;20128;-80
2022/09/01 11:56:25;;;;;;;0.00;0.00;;;26.10;66.90;;;;;;5094122;28;20095;-80
2022/09/01 11:58:51;;;;;;;0.00;0.00;;;26.10;66.30;;;;;;5094324;28;20048;-80
2022/09/01 12:01:29;;;;;;;0.00;0.00;;;26.30;63.90;;;;;;5094268;28;20063;-80
2022/09/01 12:03:57;;;;;;;0.00;0.00;;;26.50;66.20;;;;;;5106485;28;20043;-79
2022/09/01 12:06:25;;;;;;;0.00;0.00;;;26.50;63.90;;;;;;5098349;28;20425;-80
2022/09/01 12:09:03;;;;;;;0.00;0.00;;;26.50;62.60;;;;;;5098068;28;20060;-80
2022/09/01 12:11:34;;;;;;;0.00;0.00;;;26.70;62.30;;;;;;5099275;28;20043;-80
2022/09/01 12:14:04;;;;;;;0.00;0.00;;;26.90;61.90;;;;;;5098682;28;20555;-81
2022/09/01 12:16:33;;;;;;;0.00;0.00;;;27.10;62.10;;;;;;5098986;28;20106;-80
2022/09/01 12:18:59;;;;;;;0.00;0.00;;;26.90;61.50;;;;;;5098307;28;20105;-80
2022/09/01 12:21:25;;;;;;;0.00;0.00;;;26.50;61.40;;;;;;5105903;28;20055;-81
2022/09/01 12:23:51;;;;;;;0.00;0.00;;;26.00;61.00;;;;;;5093970;28;20048;-81
2022/09/01 12:26:24;;;;;;;0.00;0.00;;;25.70;60.60;;;;;;5094059;28;20189;-81
2022/09/01 12:28:51;;;;;;;0.05;0.05;;;25.80;62.80;;;;;;5077041;28;20044;-81
2022/09/01 12:31:21;;;;;;;0.00;0.00;;;26.00;61.70;;;;;;5093976;28;20142;-80
2022/09/01 12:33:48;;;;;;;0.00;0.00;;;26.30;60.80;;;;;;5075876;28;20423;-80
2022/09/01 12:36:35;;;;;;;0.00;0.00;;;26.40;61.20;;;;;;5093864;28;20052;-80
2022/09/01 12:39:23;;;;;;;0.00;0.00;;;26.70;63.80;;;;;;5077054;28;20043;-79
2022/09/01 12:42:07;;;;;;;0.00;0.00;;;27.00;60.00;;;;;;5096184;28;20402;-80
2022/09/01 12:44:36;;;;;;;;;;;26.90;59.70;;;;;;5113942;28;20056;-79
2022/09/01 12:47:08;;;;;;;0.00;0.00;;;26.60;60.10;;;;;;5096811;28;20057;-80
2022/09/01 12:49:43;;;;;;;0.00;0.00;;;26.20;59.70;;;;;;5096718;28;20055;-79
2022/09/01 12:52:18;;;;;;;0.00;0.00;;;26.00;59.60;;;;;;5095694;28;20146;-80
2022/09/01 12:54:45;;;;;;;0.00;0.00;;;26.10;61.40;;;;;;5113552;28;20550;-80
2022/09/01 12:57:29;;;;;;;0.00;0.00;;;26.20;60.90;;;;;;5096729;28;20080;-80
2022/09/01 13:00:18;;;;;;;0.00;0.00;;;26.10;59.10;;;;;;5096246;28;20509;-80
2022/09/01 13:02:45;;;;;;;0.00;0.00;;;26.10;58.50;;;;;;5096177;28;20040;-80
2022/09/01 13:05:33;;;;;;;0.00;0.00;;;26.30;63.70;;;;;;5095901;28;20055;-80
2022/09/01 13:08:01;;;;;;;0.00;0.00;;;26.60;60.00;;;;;;5096287;28;20047;-80
2022/09/01 13:10:37;;;;;;;0.00;0.00;;;26.70;57.60;;;;;;5113284;28;20087;-80
2022/09/01 13:13:04;;;;;;;0.00;0.00;;;26.70;57.60;;;;;;5096208;28;20050;-81